スカルノハッタ国際空港の過去48時間の天気

スカルノハッタ国際空港 (Jakarta / Soekarno-Hatta)

現在時刻: 2/21 01:25 WIB (2/20 18:25 UTC) 以下の時間は現地時間です。

過去48時間のMETAR気象情報
時間 風向 風速(m/s) 視程 気温(℃) 湿度(%) 気圧(hPa) 天気現象
21 01:00 南南西 2 5000m 25 89 1012 弱い雨
21 00:30 南西 2 5000m 25 89 1012 弱い雨
21 00:00 南西 2 5000m 24 94 1012 弱い雨
20 23:30 不定 1 5000m 24 94 1013 弱い雨
20 23:00 西 3 5000m 24 94 1013 弱い雷雨
20 22:30 3 2500m 24 94 1013 雷雨
20 22:00 西 6 4000m 25 89 1012 弱い雷雨
20 21:30 10 3000m 27 89 1013 弱い雷雨
20 21:00 不定 1 5000m 27 89 1011
20 20:30 西南西 1 6000m 27 84 1011
20 20:00 1 7000m 28 84 1010
20 19:30 不定 1 8000m 28 79 1010
20 19:00 北東 2 9000m 29 74 1010
20 18:30 1 9000m 29 74 1010
20 18:00 北北西 1 9000m 29 74 1009
20 17:30 3 9000m 29 74 1009
20 17:00 3 10km以上 30 70 1008
20 16:30 3 10km以上 30 70 1008
20 16:00 4 10km以上 30 70 1008
20 15:30 4 10km以上 30 70 1008
20 15:00 北西 5 9000m 30 70 1009
20 14:30 4 9000m 30 70 1009
20 14:00 北北西 4 9000m 30 70 1009
20 13:30 北北西 6 9000m 30 70 1010
20 13:00 北北西 5 9000m 29 79 1010
20 12:30 北西 6 9000m 29 74 1011
20 12:00 北北西 6 9000m 28 79 1011
20 11:30 北北西 4 9000m 28 79 1012
20 11:00 北西 5 8000m 28 79 1012
20 10:30 北西 4 7000m 28 79 1012
20 10:00 北西 5 6000m 27 84 1012
20 09:30 3 6000m 27 89 1012 弱い雨
20 09:00 西 3 5000m 26 89 1012 弱い雨
20 08:30 北西 5 3000m 25 94 1012 強い雨
20 08:00 北西 4 3500m 25 94 1012
20 07:30 不定 1 4300m 25 94 1011 弱い雨
20 07:00 不定 1 4500m 25 89 1011 弱い雨
20 06:30 不定 2 4900m 25 89 1011 もや
20 06:00 南南西 2 4300m 25 89 1011 弱い雨
20 05:30 南西 2 3900m 25 89 1010 もや
20 05:00 南西 2 4400m 24 94 1010 もや
20 04:30 西南西 2 3700m 24 94 - 弱い雨 周辺で雷
20 04:00 西南西 3 3500m 25 89 1010 弱い雨 周辺で雷
20 03:30 西南西 2 4300m 25 89 1010 弱い雨
20 03:00 南西 2 5000m 25 89 1010 弱い雷雨
20 02:30 西 2 5000m 25 89 1010 弱い雷雨
20 02:00 北西 4 5000m 25 89 1010 弱い雨
20 01:30 北西 7 4000m 25 89 1011 弱い雨
20 01:00 北西 8 4000m 25 94 1011 弱い雨
20 00:30 北北西 7 4000m 26 89 1011 弱い雨
20 00:00 北西 7 4000m 25 94 1012 弱い雷雨
19 23:30 北西 4 4000m 25 94 1012 弱い雷雨
19 23:00 北北西 7 3000m 25 94 1012 弱い雷雨
19 22:30 5 2000m 24 94 1012 雷雨
19 22:00 北北西 5 3000m 25 89 1011 周辺で雷 雨
19 21:30 北東 2 5000m 26 89 1011 周辺で雷
19 21:00 不定 2 5000m 26 89 1011 周辺で雷
19 20:30 不定 1 4000m 25 89 1010 弱い雷雨
19 20:00 不定 2 4000m 25 89 1010 弱い雷雨
19 19:30 南西 4 7000m 26 74 1010
19 19:00 南南西 4 7000m 26 79 1009 周辺で雷
19 18:30 3 7000m 28 84 1009 周辺で雷
19 18:00 北北西 4 10km以上 28 79 1008 周辺で雷
19 17:30 北北西 4 10km以上 29 74 1008 周辺で雷
19 17:00 北北西 5 10km以上 29 74 1008
19 16:30 北北西 5 10km以上 30 70 1008
19 16:00 北北西 6 10km以上 30 70 1008
19 15:30 北北西 6 10km以上 30 70 1008
19 15:00 北西 7 10km以上 30 75 1009
19 14:30 北北西 6 10km以上 30 70 1009
19 14:00 北北西 7 10km以上 30 70 1009
19 13:30 北西 6 9000m 29 74 1010
19 13:00 北西 5 9000m 29 74 1010
19 12:30 北西 5 9000m 29 74 1011
19 12:00 北西 5 9000m 29 74 1011
19 11:30 北西 5 7000m 28 79 1012
19 11:00 北西 5 7000m 28 79 1012
19 10:30 北西 4 7000m 27 89 1013
19 10:00 北西 4 8000m 27 89 1013
19 09:30 北北西 3 6000m 27 84 1013 弱い雨
19 09:00 西北西 2 5000m 26 89 1013 弱い雨
19 08:30 西北西 1 5000m 26 89 1013 弱い雨
19 08:00 3 5000m 25 94 1013 弱い雨
19 07:30 北西 4 5000m 25 94 1012 弱い雨
19 07:00 北西 3 6000m 25 89 1012
19 06:30 西 3 5000m 25 89 1011 煙霧 ひょう
19 06:00 西南西 3 5000m 25 89 1011 煙霧 ひょう
19 05:30 西 3 5000m 25 89 1011 煙霧
19 04:30 西北西 2 5000m 25 89 1010 周辺で雷
19 04:00 西 3 5000m 25 89 1010 煙霧
19 03:30 西 3 5000m 25 89 1011 煙霧
19 03:00 西 2 7000m 25 89 1011
19 02:30 西 2 7000m 24 94 1011
19 02:00 西 3 6000m 24 94 1010
19 01:30 西 3 6000m 24 94 1010
WIII 201800Z 20003KT 5000 -RA FEW020CB BKN022 25/23 Q1012 NOSIG RMK CB TO NE
WIII 201730Z 22003KT 5000 -RA FEW020CB SCT022 25/23 Q1012 NOSIG RMK CB TO NE
WIII 201700Z 22004KT 5000 -RA FEW020CB BKN021 24/23 Q1012 NOSIG RMK CB TO NE
WIII 201630Z VRB02KT 5000 -RA FEW020CB BKN022 24/23 Q1013 RETSNOSIG RMK CB TO E
WIII 201600Z 28006KT 5000 -TSRA FEW019CB SCT020 24/23 Q1013 NOSIG RMK CB TO NE
WIII 201530Z VRB05KT 2500 TSRA FEW018CB BKN019 24/23 Q1013 NOSIG RMK CB OVER THE FIELD
WIII 201500Z 26011KT 4000 -TSRA FEW019CB BKN020 25/23 Q1012 NOSIG RMK CB TO S
WIII 201430Z 35019KT 3000 -TSRA FEW019CB BKN020 27/25 Q1013 TEMPO TL1600 3000 TSRA RMK CB TO NW
WIII 201400Z VRB02KT 5000 FEW019CB FEW020 27/25 Q1011 TEMPO TL1500 4000 -TSRA RMK CB TO W
WIII 201330Z 25002KT 6000 FEW019CB FEW020 27/24 Q1011 NOSIG RMK CB TO W
WIII 201300Z 36002KT 7000 FEW020 28/25 Q1010 NOSIG
WIII 201230Z VRB02KT 8000 FEW020 28/24 Q1010 NOSIG
WIII 201200Z 04003KT 9000 FEW020 29/24 Q1010 NOSIG
WIII 201130Z 35002KT 9000 FEW020 29/24 Q1010 NOSIG
WIII 201100Z 33002KT 9000 FEW020 29/24 Q1009 NOSIG
WIII 201030Z 01005KT 9000 FEW020 29/24 Q1009 NOSIG
WIII 201000Z VRB05KT 9999 FEW020 30/24 Q1008 NOSIG
WIII 200930Z VRB05KT 9999 SCT020 30/24 Q1008 NOSIG
WIII 200900Z 35008KT 9999 SCT020 30/24 Q1008 NOSIG
WIII 200830Z 36007KT 9999 SCT020 30/24 Q1008 NOSIG
WIII 200800Z 32009KT 9000 BKN020 30/24 Q1009 NOSIG
WIII 200730Z 35007KT 9000 BKN020 30/24 Q1009 NOSIG
WIII 200700Z 34008KT 9000 BKN020 30/24 Q1009 NOSIG
WIII 200630Z 33012KT 9000 BKN020 30/24 Q1010 NOSIG
WIII 200600Z 33009KT 9000 BKN020 29/25 Q1010 NOSIG
WIII 200530Z 32011KT 9000 BKN020 29/24 Q1011 NOSIG
WIII 200500Z 34012KT 9000 SCT020 28/24 Q1011 NOSIG
WIII 200430Z 33008KT 9000 SCT020 28/24 Q1012 NOSIG
WIII 200400Z 32009KT 8000 SCT020 28/24 Q1012 NOSIG
WIII 200330Z 32007KT 7000 BKN019 28/24 Q1012 NOSIG
WIII 200300Z 32009KT 6000 SCT020 27/24 Q1012 RERA NOSIG
WIII 200230Z VRB05KT 6000 -RA SCT020 27/25 Q1012 NOSIG
WIII 200200Z 28005KT 5000 -RA SCT020 26/24 Q1012 NOSIG
WIII 200130Z 32009KT 3000 +RA OVC018 25/24 Q1012 NOSIG
WIII 200100Z 32007KT 3500 RA BKN020 25/24 Q1012 NOSIG
WIII 200030Z VRB02KT 4300 -RA BKN020 25/24 Q1011 NOSIG
WIII 200000Z VRB01KT 4500 -RA BKN020 25/23 Q1011 NOSIG
WIII 192330Z VRB04KT 4900 BR BKN021 25/23 Q1011 RERA NOSIG
WIII 192300Z 20004KT 4300 -RA BKN020 25/23 Q1011 NOSIG
WIII 192230Z 22004KT 3900 BR SCT021 25/23 Q1010 NOSIG
WIII 192200Z 23003KT 4400 BR SCT020 24/23 Q1010 RERA NOSIG
WIII 192130Z 24004KT 3700 -RA VCTS FEW017CB SCT020 24/23 Q1010RMK CB TO E NOSIG
WIII 192100Z 25005KT 3500 -RA VCTS FEW017CB SCT019 25/23 Q1010 RETS NOSIG
WIII 192030Z 24004KT 4300 -RA FEW017CB BKN019 25/23 Q1010 RMK CB TO E BECMG AT2200 6000 NSW
WIII 192000Z 22004KT 5000 -TSRA FEW017CB BKN019 25/23 Q1010 RMK CB TO E NOSIG
WIII 191930Z 28004KT 5000 -TSRA FEW017CB BKN019 25/23 Q1010 RMK CB TO E NOSIG
WIII 191900Z 31007KT 5000 -RA BKN019 25/23 Q1010 NOSIG
WIII 191830Z 32014KT 4000 -RA BKN019 25/23 Q1011 NOSIG
WIII 191800Z 32015KT 4000 -RA BKN019 25/24 Q1011 NOSIG
WIII 191730Z 33014KT 4000 -RA FEW018CB BKN020 26/24 Q1011 RETSNOSIG RMK CB TO NE
WIII 191700Z 32014KT 4000 -TSRA FEW018CB BKN020 25/24 Q1012 BECMG AT1830 5000 NSW RMK CB TO E
WIII 191630Z 31008KT 4000 -TSRA FEW018CB BKN020 25/24 Q1012 NOSIG BECMG AT1730 4000 NSW RMK CB TO NE
WIII 191600Z 33013KT 3000 -TSRA FEW018CB BKN020 25/24 Q1012 BECMG AT1730 4000 NSW
WIII 191530Z 35009KT 2000 TSRA FEW018CB BKN020 24/23 Q1012 TEMPO TL1630 -TSRA RMK CB OVER THE FIELD
WIII 191500Z 33010KT 3000 VCTS RA FEW018CB SCT020 25/23 Q1011 TEMPO TL1630 4000 -TSRA RMK CB TO N
WIII 191430Z 05003KT 5000 VCTS FEW018CB SCT020 26/24 Q1011 TEMPO FM1440 4000 -TSRA RMK CB TO N
WIII 191400Z VRB04KT 5000 VCTS FEW018CB SCT020 26/24 Q1011 RERA NOSIG RMK CB TO NE
WIII 191330Z VRB01KT 4000 -TSRA FEW018CB SCT020 25/23 Q1010 TEMPO TL1430 3000 TSRA RMK CB TO NE
WIII 191300Z VRB04KT 4000 -TSRA FEW018CB SCT020 25/23 Q1010 TEMPO TL1430 3000 TSRA RMK CB TO E
WIII 191230Z 22007KT 7000 TS FEW018CB SCT020 26/21 Q1010 TEMPOTL1300 3000 TSRA RMK CB OVER THE FIELD
WIII 191200Z 20007KT 7000 VCTS FEW018CB SCT020 26/22 Q1009 TEMPO TL1300 3000 TSRA RMK CB TO S
WIII 191130Z VRB05KT 7000 VCTS FEW018CB SCT020 28/25 Q1009 TEMPO TL1200 3000 TSRA RMK CB TO S
WIII 191100Z 34007KT 9999 VCTS FEW020CB FEW022 28/24 Q1008 RMKCB TO S NOSIG
WIII 191030Z 34008KT 9999 VCTS FEW020CB FEW022 29/24 Q1008 NOSIG RMK CB TO SW
WIII 191000Z 33009KT 9999 FEW023 BKN080 BKN200 29/24 Q1008 NOSIG
WIII 190930Z 34010KT 9999 FEW023 30/24 Q1008 NOSIG
WIII 190900Z 33012KT 9999 FEW022 30/24 Q1008 NOSIG
WIII 190830Z 34012KT 9999 FEW022 30/24 Q1008 NOSIG
WIII 190800Z 32013KT 9999 SCT021 30/25 Q1009 NOSIG
WIII 190730Z 34012KT 9999 SCT020 30/24 Q1009 NOSIG
WIII 190700Z 33013KT 9999 SCT020 30/24 Q1009 NOSIG
WIII 190630Z 32012KT 9000 SCT018 29/24 Q1010 NOSIG
WIII 190600Z 32010KT 9000 SCT018 29/24 Q1010 NOSIG
WIII 190530Z 31009KT 9000 SCT018 29/24 Q1011 NOSIG
WIII 190500Z 31009KT 9000 SCT018 29/24 Q1011 NOSIG
WIII 190430Z 31010KT 7000 BKN018 28/24 Q1012 NOSIG
WIII 190400Z 32009KT 7000 BKN018 28/24 Q1012 NOSIG
WIII 190330Z 32008KT 7000 SCT018 27/25 Q1013 NOSIG
WIII 190300Z 32007KT 8000 SCT018 27/25 Q1013 RERA NOSIG
WIII 190230Z 33005KT 6000 -RA SCT017 27/24 Q1013 NOSIG
WIII 190200Z 30003KT 5000 -RA BKN016 26/24 Q1013 NOSIG
WIII 190130Z 29002KT 5000 -RA BKN016 26/24 Q1013 NOSIG
WIII 190100Z 36005KT 5000 -RA BKN020 25/24 Q1013 TEMPO TL0200 3000 SHRA BECMG AT0200 NSW
WIII 190030Z 31008KT 5000 -RA FEW018CB BKN019 25/24 Q1012 TEMPO TL0200 3000 SHRA BECMG AT0200 NSW RMK CB TO N
WIII 190000Z 32005KT 6000 FEW018CB SCT019 25/23 Q1012 NOSIG RMK CB TO NE
WIII 182330Z 27006KT 5000 HZ FEW018CB SCT020 25/23 Q1011 NOSIGRMK CB TO NE
WIII 182300Z 25006KT 5000 HZ FEW019CB SCT020 25/23 Q1011 NOSIGRMK CB TO NE
WIII 182230Z 27006KT 5000 HZ FEW020 25/23 Q1011 NOSIG
WIII 182130Z 29004KT 5000 VCTS FEW018CB FEW020 25/23 Q1010 NOSIG RMK CB TO NE
WIII 182100Z 26005KT 5000 HZ FEW018 25/23 Q1010 NOSIG
WIII 182030Z 27005KT 5000 HZ SCT022 25/23 Q1011 NOSIG
WIII 182000Z 26004KT 7000 FEW020 25/23 Q1011 NOSIG
WIII 181930Z 27004KT 7000 FEW020 24/23 Q1011 NOSIG
WIII 181900Z 26006KT 6000 FEW020 24/23 Q1010 NOSIG
WIII 181830Z 27005KT 6000 FEW020 24/23 Q1010 NOSIG